createdAt,value
2022-10-30T00:00:42.374Z,23.25
2022-10-30T00:03:13.816Z,23.31
2022-10-30T00:05:42.572Z,23.31
2022-10-30T00:08:12.885Z,23.30
2022-10-30T00:10:41.108Z,23.30
2022-10-30T00:13:10.568Z,23.29
2022-10-30T00:15:47.347Z,23.30
2022-10-30T00:18:14.979Z,23.26
2022-10-30T00:20:42.389Z,23.28
2022-10-30T00:23:09.729Z,23.32
2022-10-30T00:25:41.185Z,23.32
2022-10-30T00:28:10.089Z,23.30
2022-10-30T00:30:39.296Z,23.34
2022-10-30T00:33:07.533Z,23.33
2022-10-30T00:35:38.431Z,23.36
2022-10-30T00:38:09.180Z,23.30
2022-10-30T00:40:36.482Z,23.35
2022-10-30T00:43:03.841Z,23.33
2022-10-30T00:45:31.271Z,23.34
2022-10-30T00:48:04.175Z,23.26
2022-10-30T00:50:35.091Z,23.31
2022-10-30T00:53:07.521Z,23.28
2022-10-30T00:55:38.697Z,23.35
2022-10-30T00:58:10.962Z,23.32
2022-10-30T01:00:41.821Z,23.33
2022-10-30T01:03:11.181Z,23.34
2022-10-30T01:05:39.667Z,23.33
2022-10-30T01:08:07.016Z,23.34
2022-10-30T01:10:34.395Z,23.33
2022-10-30T01:13:02.715Z,23.36
2022-10-30T01:15:35.092Z,23.35
2022-10-30T01:18:28.486Z,23.38
2022-10-30T01:21:24.145Z,23.35
2022-10-30T01:24:03.257Z,23.34
2022-10-30T01:26:45.810Z,23.33
2022-10-30T01:29:24.832Z,23.34
2022-10-30T01:32:06.569Z,23.38
2022-10-30T01:34:43.879Z,23.34
2022-10-30T01:37:18.239Z,23.37
2022-10-30T01:39:45.659Z,23.35
2022-10-30T01:42:52.060Z,23.35
2022-10-30T01:45:26.976Z,23.33
2022-10-30T01:48:15.749Z,23.33
2022-10-30T01:50:57.049Z,23.34
2022-10-30T01:53:43.174Z,23.36
2022-10-30T01:56:20.819Z,23.33
2022-10-30T01:58:56.260Z,23.33
2022-10-30T02:01:25.154Z,23.35
2022-10-30T02:03:52.973Z,23.36
2022-10-30T02:06:23.132Z,23.37
2022-10-30T02:08:51.078Z,23.36
2022-10-30T02:11:18.923Z,23.35
2022-10-30T02:13:46.350Z,23.36
2022-10-30T02:16:14.064Z,23.36
2022-10-30T02:18:43.101Z,23.37
2022-10-30T02:21:11.971Z,23.35
2022-10-30T02:23:39.867Z,23.36
2022-10-30T02:26:08.243Z,23.38
2022-10-30T02:28:36.683Z,23.35
2022-10-30T02:31:11.196Z,23.34
2022-10-30T02:33:44.716Z,22.52
2022-10-30T02:36:13.596Z,22.23
2022-10-30T02:38:41.563Z,22.83
2022-10-30T02:41:09.135Z,23.05
2022-10-30T02:43:37.282Z,23.09
2022-10-30T02:46:06.016Z,23.08
2022-10-30T02:48:35.330Z,23.07
2022-10-30T02:51:05.121Z,23.16
2022-10-30T02:53:36.505Z,23.12
2022-10-30T02:56:04.749Z,23.17
2022-10-30T02:58:35.278Z,23.13
2022-10-30T03:01:08.956Z,23.18
2022-10-30T03:03:36.468Z,23.14
2022-10-30T03:06:05.823Z,23.13
2022-10-30T03:08:36.219Z,23.15
2022-10-30T03:11:09.783Z,23.16
2022-10-30T03:13:38.363Z,23.21
2022-10-30T03:16:08.880Z,23.21
2022-10-30T03:18:36.791Z,23.21
2022-10-30T03:21:11.428Z,23.22
2022-10-30T03:23:40.364Z,23.26
2022-10-30T03:26:08.570Z,23.26
2022-10-30T03:28:58.925Z,23.08
2022-10-30T03:31:26.437Z,23.13
2022-10-30T03:34:09.361Z,23.16
2022-10-30T03:36:36.738Z,23.24
2022-10-30T03:39:05.710Z,23.24
2022-10-30T03:41:33.753Z,23.25
2022-10-30T03:44:01.612Z,23.27
2022-10-30T03:46:28.929Z,23.28
2022-10-30T03:49:05.175Z,23.27
2022-10-30T03:51:33.138Z,23.28
2022-10-30T03:54:00.499Z,23.28
2022-10-30T03:56:29.295Z,23.27
2022-10-30T03:58:59.772Z,23.30
2022-10-30T04:01:27.299Z,23.29
2022-10-30T04:03:57.507Z,23.28
2022-10-30T04:06:26.054Z,23.29
2022-10-30T04:08:54.919Z,23.30
2022-10-30T04:11:22.872Z,23.29
2022-10-30T04:13:51.756Z,23.28
2022-10-30T04:16:19.337Z,23.28
2022-10-30T04:18:46.690Z,23.30
2022-10-30T04:21:14.057Z,23.33
2022-10-30T04:23:41.435Z,23.31
2022-10-30T04:26:09.837Z,23.35
2022-10-30T04:28:40.063Z,23.30
2022-10-30T04:31:09.974Z,23.32
2022-10-30T04:33:37.303Z,23.27
2022-10-30T04:36:05.270Z,23.34
2022-10-30T04:38:33.245Z,23.34
2022-10-30T04:41:01.688Z,23.30
2022-10-30T04:43:44.238Z,23.36
2022-10-30T04:46:13.135Z,23.32
2022-10-30T04:48:40.509Z,23.36
2022-10-30T04:51:09.486Z,23.34
2022-10-30T04:53:36.837Z,23.35
2022-10-30T04:56:07.749Z,23.35
2022-10-30T04:58:35.321Z,23.39
2022-10-30T05:01:06.605Z,23.36
2022-10-30T05:03:36.430Z,23.37
2022-10-30T05:06:22.067Z,23.38
2022-10-30T05:08:49.820Z,23.37
2022-10-30T05:11:27.737Z,23.39
2022-10-30T05:14:01.042Z,23.39
2022-10-30T05:16:31.228Z,23.41
2022-10-30T05:19:01.759Z,23.41
2022-10-30T05:21:30.695Z,23.39
2022-10-30T05:24:02.059Z,23.38
2022-10-30T05:26:36.730Z,23.40
2022-10-30T05:29:04.122Z,23.44
2022-10-30T05:31:31.561Z,23.41
2022-10-30T05:34:18.433Z,23.47
2022-10-30T05:36:49.138Z,23.42
2022-10-30T05:39:17.404Z,23.44
2022-10-30T05:41:48.263Z,23.41
2022-10-30T05:44:28.854Z,23.42
2022-10-30T05:47:05.856Z,23.42
2022-10-30T05:49:36.509Z,23.42
2022-10-30T05:52:08.100Z,23.43
2022-10-30T05:54:36.118Z,23.45
2022-10-30T05:57:09.034Z,23.41
2022-10-30T05:59:44.218Z,23.45
2022-10-30T06:02:13.540Z,23.47
2022-10-30T06:04:47.523Z,23.50
2022-10-30T06:07:18.330Z,23.47
2022-10-30T06:09:47.798Z,23.46
2022-10-30T06:12:36.790Z,23.44
2022-10-30T06:15:35.817Z,23.50
2022-10-30T06:18:05.202Z,23.49
2022-10-30T06:20:56.578Z,23.48
2022-10-30T06:23:50.033Z,23.49
2022-10-30T06:26:35.779Z,23.51
2022-10-30T06:29:09.295Z,23.49
2022-10-30T06:31:36.748Z,23.50
2022-10-30T06:34:04.176Z,23.47
2022-10-30T06:36:35.287Z,23.51
2022-10-30T06:39:02.768Z,23.52
2022-10-30T06:41:38.088Z,23.49
2022-10-30T06:44:23.898Z,23.47
2022-10-30T06:46:53.401Z,23.51
2022-10-30T06:49:21.137Z,23.51
2022-10-30T06:51:53.647Z,23.53
2022-10-30T06:54:22.112Z,23.53
2022-10-30T06:57:05.166Z,23.54
2022-10-30T06:59:52.355Z,23.56
2022-10-30T07:02:29.428Z,23.56
2022-10-30T07:05:02.145Z,23.58
2022-10-30T07:07:31.343Z,23.59
2022-10-30T07:09:59.545Z,23.61
2022-10-30T07:13:00.911Z,23.61
2022-10-30T07:15:44.093Z,23.60
2022-10-30T07:18:23.981Z,23.59
2022-10-30T07:20:56.496Z,23.59
2022-10-30T07:23:26.014Z,23.60
2022-10-30T07:26:03.898Z,23.61
2022-10-30T07:28:45.472Z,23.59
2022-10-30T07:31:41.409Z,23.63
2022-10-30T07:34:13.280Z,23.67
2022-10-30T07:36:47.796Z,23.68
2022-10-30T07:39:39.066Z,23.63
2022-10-30T07:42:19.363Z,23.61
2022-10-30T07:45:06.319Z,23.69
2022-10-30T07:47:52.258Z,23.66
2022-10-30T07:50:29.237Z,23.68
2022-10-30T07:52:56.577Z,23.67
2022-10-30T07:55:28.708Z,23.69
2022-10-30T07:58:22.348Z,23.69
2022-10-30T08:01:08.444Z,23.69
2022-10-30T08:03:37.222Z,23.73
2022-10-30T08:06:11.044Z,23.72
2022-10-30T08:08:43.174Z,23.69
2022-10-30T08:11:32.726Z,23.70
2022-10-30T08:14:00.790Z,23.67
2022-10-30T08:16:28.382Z,23.67
2022-10-30T08:18:56.246Z,23.68
2022-10-30T08:21:25.857Z,23.66
2022-10-30T08:24:23.441Z,23.66
2022-10-30T08:26:54.480Z,23.68
2022-10-30T08:29:23.305Z,23.67
2022-10-30T08:31:52.839Z,23.67
2022-10-30T08:34:23.740Z,23.67
2022-10-30T08:36:55.589Z,23.68
2022-10-30T08:39:24.821Z,23.68
2022-10-30T08:41:53.588Z,23.69
2022-10-30T08:44:22.077Z,23.66
2022-10-30T08:47:15.632Z,23.68
2022-10-30T08:49:43.171Z,23.71
2022-10-30T08:52:11.295Z,23.70
2022-10-30T08:54:39.748Z,23.69
2022-10-30T08:57:09.270Z,23.70
2022-10-30T08:59:36.681Z,23.70
2022-10-30T09:02:04.475Z,23.70
2022-10-30T09:04:52.170Z,23.70
2022-10-30T09:07:56.615Z,23.68
2022-10-30T09:10:55.107Z,23.69
2022-10-30T09:13:30.206Z,23.66
2022-10-30T09:16:00.591Z,23.69
2022-10-30T09:18:29.591Z,23.70
2022-10-30T09:20:58.157Z,23.70
2022-10-30T09:23:27.246Z,23.73
2022-10-30T09:26:12.091Z,23.72
2022-10-30T09:29:06.305Z,23.74
2022-10-30T09:32:05.600Z,23.76
2022-10-30T09:34:35.530Z,23.74
2022-10-30T09:37:21.388Z,23.78
2022-10-30T09:39:52.007Z,23.76
2022-10-30T09:42:45.757Z,23.75
2022-10-30T09:45:56.771Z,23.78
2022-10-30T09:49:15.577Z,23.82
2022-10-30T09:52:08.237Z,23.78
2022-10-30T09:54:50.680Z,23.79
2022-10-30T09:57:25.308Z,23.82
2022-10-30T10:00:10.081Z,23.81
2022-10-30T10:02:57.147Z,23.80
2022-10-30T10:05:36.155Z,23.80
2022-10-30T10:08:32.573Z,23.85
2022-10-30T10:11:25.857Z,23.82
2022-10-30T10:13:56.810Z,23.83
2022-10-30T10:16:27.403Z,23.81
2022-10-30T10:19:02.828Z,23.78
2022-10-30T10:21:35.884Z,23.85
2022-10-30T10:24:04.577Z,23.81
2022-10-30T10:26:47.371Z,23.86
2022-10-30T10:29:33.636Z,23.85
2022-10-30T10:32:24.892Z,23.82
2022-10-30T10:35:36.311Z,23.84
2022-10-30T10:38:11.645Z,23.89
2022-10-30T10:40:53.831Z,23.85
2022-10-30T10:43:32.460Z,23.87
2022-10-30T10:46:20.743Z,23.83
2022-10-30T10:49:06.912Z,23.87
2022-10-30T10:51:39.824Z,23.90
2022-10-30T10:54:14.545Z,23.86
2022-10-30T10:56:46.092Z,23.89
2022-10-30T10:59:18.857Z,23.88
2022-10-30T11:01:55.056Z,23.90
2022-10-30T11:04:31.751Z,23.92
2022-10-30T11:07:15.597Z,23.92
2022-10-30T11:09:43.460Z,23.90
2022-10-30T11:12:11.048Z,23.93
2022-10-30T11:14:45.249Z,23.94
2022-10-30T11:17:20.838Z,23.89
2022-10-30T11:19:51.840Z,23.91
2022-10-30T11:22:25.956Z,23.93
2022-10-30T11:24:53.876Z,23.90
2022-10-30T11:27:26.867Z,24.05
2022-10-30T11:29:57.768Z,24.02
2022-10-30T11:32:28.832Z,23.91
2022-10-30T11:35:13.286Z,23.92
2022-10-30T11:37:44.922Z,23.95
2022-10-30T11:40:21.762Z,23.94
2022-10-30T11:42:54.990Z,23.91
2022-10-30T11:45:26.604Z,23.94
2022-10-30T11:47:58.300Z,23.94
2022-10-30T11:50:32.575Z,23.92
2022-10-30T11:53:13.437Z,23.92
2022-10-30T11:55:46.114Z,23.98
2022-10-30T11:58:24.879Z,23.96
2022-10-30T12:01:02.286Z,23.97
2022-10-30T12:03:34.916Z,23.96
2022-10-30T12:06:09.191Z,23.96
2022-10-30T12:08:38.238Z,23.95
2022-10-30T12:11:06.742Z,23.98
2022-10-30T12:13:38.834Z,24.03
2022-10-30T12:16:16.553Z,23.97
2022-10-30T12:18:54.890Z,23.91
2022-10-30T12:21:22.388Z,23.81
2022-10-30T12:23:57.528Z,23.79
2022-10-30T12:26:26.154Z,23.84
2022-10-30T12:28:58.758Z,23.88
2022-10-30T12:31:34.674Z,23.90
2022-10-30T12:36:50.656Z,23.95
2022-10-30T12:39:27.861Z,24.00
2022-10-30T12:42:02.577Z,23.96
2022-10-30T12:44:36.766Z,23.98
2022-10-30T12:47:12.026Z,23.99
2022-10-30T12:49:42.151Z,23.95
2022-10-30T12:52:16.027Z,23.92
2022-10-30T12:54:53.939Z,23.83
2022-10-30T12:57:26.137Z,23.73
2022-10-30T13:00:01.874Z,23.78
2022-10-30T13:02:41.086Z,23.66
2022-10-30T13:05:27.824Z,23.69
2022-10-30T13:08:07.117Z,23.68
2022-10-30T13:10:43.038Z,23.61
2022-10-30T13:13:15.661Z,23.60
2022-10-30T13:15:48.047Z,23.61
2022-10-30T13:18:17.858Z,23.55
2022-10-30T13:20:56.464Z,23.55
2022-10-30T13:23:29.471Z,23.48
2022-10-30T13:26:07.557Z,23.49
2022-10-30T13:28:42.486Z,23.49
2022-10-30T13:31:19.157Z,23.49
2022-10-30T13:33:55.785Z,23.45
2022-10-30T13:36:32.568Z,23.45
2022-10-30T13:39:09.456Z,23.43
2022-10-30T13:41:49.701Z,23.50
2022-10-30T13:44:30.621Z,23.43
2022-10-30T13:47:12.989Z,23.48
2022-10-30T13:49:58.136Z,23.45
2022-10-30T13:52:29.672Z,23.44
2022-10-30T13:55:03.229Z,23.39
2022-10-30T13:57:36.853Z,23.39
2022-10-30T14:00:13.388Z,23.35
2022-10-30T14:03:07.122Z,23.32
2022-10-30T14:05:42.850Z,23.41
2022-10-30T14:08:21.073Z,23.38
2022-10-30T14:10:53.369Z,23.44
2022-10-30T14:13:26.230Z,23.45
2022-10-30T14:15:55.611Z,23.45
2022-10-30T14:18:44.702Z,23.42
2022-10-30T14:21:32.156Z,23.40
2022-10-30T14:24:04.760Z,23.39
2022-10-30T14:26:32.340Z,23.34
2022-10-30T14:29:45.885Z,23.28
2022-10-30T14:32:46.441Z,23.26
2022-10-30T14:35:32.892Z,23.26
2022-10-30T14:38:16.344Z,23.26
2022-10-30T14:41:07.131Z,23.26
2022-10-30T14:43:47.634Z,23.23
2022-10-30T14:46:24.924Z,23.11
2022-10-30T14:49:01.093Z,23.24
2022-10-30T14:51:34.710Z,23.26
2022-10-30T14:54:15.570Z,23.26
2022-10-30T14:56:47.972Z,23.21
2022-10-30T14:59:24.554Z,23.14
2022-10-30T15:02:14.309Z,23.20
2022-10-30T15:04:59.074Z,23.22
2022-10-30T15:07:33.430Z,23.18
2022-10-30T15:10:11.348Z,23.20
2022-10-30T15:12:59.744Z,23.14
2022-10-30T15:15:30.251Z,23.18
2022-10-30T15:18:03.263Z,23.23
2022-10-30T15:20:33.799Z,23.18
2022-10-30T15:23:04.950Z,23.20
2022-10-30T15:25:36.108Z,23.20
2022-10-30T15:28:04.876Z,23.19
2022-10-30T15:30:32.374Z,23.13
2022-10-30T15:33:01.525Z,23.14
2022-10-30T15:35:29.588Z,23.14
2022-10-30T15:38:05.220Z,23.16
2022-10-30T15:40:34.417Z,23.18
2022-10-30T15:43:03.487Z,23.15
2022-10-30T15:45:35.100Z,23.14
2022-10-30T15:48:09.191Z,23.12
2022-10-30T15:50:41.226Z,23.13
2022-10-30T15:53:20.527Z,23.11
2022-10-30T15:55:50.182Z,23.16
2022-10-30T15:58:22.744Z,23.10
2022-10-30T16:00:56.981Z,23.08
2022-10-30T16:03:27.091Z,23.11
2022-10-30T16:06:05.677Z,23.10
2022-10-30T16:08:43.611Z,23.07
2022-10-30T16:11:12.242Z,23.13
2022-10-30T16:13:39.663Z,23.10
2022-10-30T16:16:12.349Z,23.12
2022-10-30T16:18:41.887Z,23.23
2022-10-30T16:21:14.271Z,23.30
2022-10-30T16:23:46.474Z,23.31
2022-10-30T16:26:24.921Z,23.24
2022-10-30T16:28:52.639Z,23.30
2022-10-30T16:31:20.633Z,23.37
2022-10-30T16:33:49.623Z,23.35
2022-10-30T16:36:18.609Z,23.36
2022-10-30T16:38:48.233Z,23.37
2022-10-30T16:41:16.023Z,23.40
2022-10-30T16:44:04.329Z,23.43
2022-10-30T16:46:38.113Z,23.40
2022-10-30T16:49:15.465Z,23.47
2022-10-30T16:51:43.524Z,23.41
2022-10-30T16:54:20.307Z,23.44
2022-10-30T16:56:48.992Z,23.48
2022-10-30T16:59:27.538Z,23.49
2022-10-30T17:01:57.655Z,23.48
2022-10-30T17:04:28.429Z,23.49
2022-10-30T17:07:05.673Z,23.46
2022-10-30T17:09:37.322Z,23.48
2022-10-30T17:12:12.631Z,23.49
2022-10-30T17:14:51.103Z,23.47
2022-10-30T17:17:28.813Z,23.53
2022-10-30T17:20:03.250Z,23.50
2022-10-30T17:22:31.781Z,23.50
2022-10-30T17:25:00.149Z,23.50
2022-10-30T17:27:46.450Z,23.51
2022-10-30T17:30:41.741Z,23.56
2022-10-30T17:33:35.026Z,23.52
2022-10-30T17:36:06.853Z,23.50
2022-10-30T17:38:34.414Z,23.59
2022-10-30T17:41:03.026Z,23.53
2022-10-30T17:43:32.045Z,23.52
2022-10-30T17:45:59.413Z,23.57
2022-10-30T17:48:28.462Z,23.61
2022-10-30T17:50:55.901Z,23.56
2022-10-30T17:53:26.026Z,23.56
2022-10-30T17:56:01.474Z,23.54
2022-10-30T17:58:28.895Z,23.54
2022-10-30T18:00:56.271Z,23.54
2022-10-30T18:03:23.661Z,23.57
2022-10-30T18:05:52.205Z,23.58
2022-10-30T18:08:19.569Z,23.54
2022-10-30T18:10:51.523Z,23.55
2022-10-30T18:13:19.001Z,23.54
2022-10-30T18:15:52.567Z,23.56
2022-10-30T18:18:19.933Z,23.59
2022-10-30T18:20:47.337Z,23.62
2022-10-30T18:23:38.840Z,23.61
2022-10-30T18:26:14.077Z,23.61
2022-10-30T18:28:49.027Z,23.59
2022-10-30T18:31:20.066Z,23.63
2022-10-30T18:33:47.665Z,23.63
2022-10-30T18:36:16.863Z,23.60
2022-10-30T18:38:44.380Z,23.65
2022-10-30T18:41:16.539Z,23.60
2022-10-30T18:43:46.776Z,23.61
2022-10-30T18:46:15.492Z,23.63
2022-10-30T18:48:43.528Z,23.61
2022-10-30T18:51:16.477Z,23.61
2022-10-30T18:53:43.903Z,23.60
2022-10-30T18:56:12.042Z,23.60
2022-10-30T18:58:43.753Z,23.66
2022-10-30T19:01:13.259Z,23.63
2022-10-30T19:03:41.092Z,23.64
2022-10-30T19:06:12.514Z,23.63
2022-10-30T19:08:43.422Z,23.60
2022-10-30T19:11:13.539Z,23.60
2022-10-30T19:13:41.449Z,23.61
2022-10-30T19:16:13.167Z,23.64
2022-10-30T19:18:40.630Z,23.63
2022-10-30T19:21:15.396Z,23.60
2022-10-30T19:23:43.346Z,23.60
2022-10-30T19:28:43.741Z,23.64
2022-10-30T19:31:15.419Z,23.68
2022-10-30T19:33:43.243Z,23.58
2022-10-30T19:36:26.320Z,23.60
2022-10-30T19:38:53.731Z,23.60
2022-10-30T19:41:21.159Z,23.59
2022-10-30T19:43:48.536Z,23.59
2022-10-30T19:46:17.314Z,23.63
2022-10-30T19:49:00.573Z,23.60
2022-10-30T19:51:28.449Z,23.62
2022-10-30T19:53:56.069Z,23.60
2022-10-30T19:56:23.796Z,23.67
2022-10-30T19:58:51.512Z,23.68
2022-10-30T20:01:20.567Z,23.60
2022-10-30T20:03:47.986Z,23.60
2022-10-30T20:06:15.505Z,23.57
2022-10-30T20:08:42.850Z,23.63
2022-10-30T20:11:10.252Z,23.60
2022-10-30T20:13:37.641Z,23.61
2022-10-30T20:16:05.966Z,23.59
2022-10-30T20:18:36.357Z,23.63
2022-10-30T20:21:06.219Z,23.59
2022-10-30T20:23:36.725Z,23.58
2022-10-30T20:26:10.624Z,23.60
2022-10-30T20:28:40.813Z,23.59
2022-10-30T20:31:11.395Z,23.58
2022-10-30T20:33:40.532Z,23.57
2022-10-30T20:36:08.205Z,23.59
2022-10-30T20:38:35.597Z,23.58
2022-10-30T20:41:05.559Z,23.59
2022-10-30T20:43:35.646Z,23.60
2022-10-30T20:46:04.100Z,23.61
2022-10-30T20:48:31.667Z,23.61
2022-10-30T20:51:03.816Z,23.58
2022-10-30T20:53:31.642Z,23.61
2022-10-30T20:56:02.009Z,23.57
2022-10-30T20:58:31.335Z,23.58
2022-10-30T21:01:00.413Z,23.60
2022-10-30T21:03:30.001Z,23.62
2022-10-30T21:05:59.337Z,23.61
2022-10-30T21:08:33.339Z,23.59
2022-10-30T21:11:01.507Z,23.60
2022-10-30T21:13:29.791Z,23.58
2022-10-30T21:16:01.449Z,23.57
2022-10-30T21:18:29.309Z,23.58
2022-10-30T21:21:00.791Z,23.58
2022-10-30T21:23:29.850Z,23.56
2022-10-30T21:26:00.614Z,23.56
2022-10-30T21:28:28.002Z,23.52
2022-10-30T21:30:59.992Z,23.51
2022-10-30T21:33:30.104Z,23.52
2022-10-30T21:35:57.435Z,23.49
2022-10-30T21:38:29.323Z,23.53
2022-10-30T21:40:56.705Z,23.49
2022-10-30T21:43:24.927Z,23.52
2022-10-30T21:45:52.372Z,23.52
2022-10-30T21:48:19.664Z,23.51
2022-10-30T21:50:46.978Z,23.52
2022-10-30T21:53:14.668Z,23.51
2022-10-30T21:55:45.815Z,23.56
2022-10-30T21:58:13.888Z,23.58
2022-10-30T22:00:44.214Z,23.58
2022-10-30T22:03:14.313Z,23.55
2022-10-30T22:05:43.668Z,23.56
2022-10-30T22:08:13.749Z,23.57
2022-10-30T22:10:43.207Z,23.54
2022-10-30T22:15:44.643Z,23.56
2022-10-30T22:18:14.868Z,23.58
2022-10-30T22:20:42.191Z,23.58
2022-10-30T22:23:13.239Z,23.60
2022-10-30T22:25:44.753Z,23.64
2022-10-30T22:28:12.134Z,23.62
2022-10-30T22:30:42.661Z,23.58
2022-10-30T22:33:10.715Z,23.60
2022-10-30T22:35:39.422Z,23.57
2022-10-30T22:38:10.138Z,23.60
2022-10-30T22:40:40.270Z,23.56
2022-10-30T22:43:12.131Z,23.60
2022-10-30T22:45:39.845Z,23.61
2022-10-30T22:48:11.271Z,23.61
2022-10-30T22:50:40.033Z,23.55
2022-10-30T22:53:10.591Z,23.58
2022-10-30T22:55:38.650Z,23.59
2022-10-30T22:58:10.094Z,23.63
2022-10-30T23:00:38.012Z,23.57
2022-10-30T23:03:08.200Z,23.58
2022-10-30T23:05:38.573Z,23.62
2022-10-30T23:08:07.919Z,23.56
2022-10-30T23:10:37.485Z,23.64
2022-10-30T23:13:07.349Z,23.60
2022-10-30T23:15:40.272Z,23.61
2022-10-30T23:18:08.318Z,23.60
2022-10-30T23:20:36.712Z,23.61
2022-10-30T23:23:05.805Z,23.56
2022-10-30T23:25:35.685Z,23.58
2022-10-30T23:28:06.121Z,23.60
2022-10-30T23:30:35.716Z,23.63
2022-10-30T23:33:07.240Z,23.61
2022-10-30T23:35:35.304Z,23.58
2022-10-30T23:38:05.709Z,23.60
2022-10-30T23:40:34.446Z,23.59
2022-10-30T23:43:03.460Z,23.61
2022-10-30T23:45:35.215Z,23.68
2022-10-30T23:48:04.695Z,23.61
2022-10-30T23:50:36.088Z,23.62
2022-10-30T23:53:03.536Z,23.61
2022-10-30T23:55:33.898Z,23.65
2022-10-30T23:58:04.206Z,23.65
